createdAt,value
2023-05-18T00:00:37.877Z,11.37
2023-05-18T00:01:40.884Z,11.43
2023-05-18T00:02:43.473Z,11.45
2023-05-18T00:03:46.009Z,11.45
2023-05-18T00:04:48.584Z,11.50
2023-05-18T00:05:50.942Z,11.36
2023-05-18T00:06:56.975Z,11.27
2023-05-18T00:07:59.628Z,11.20
2023-05-18T00:09:01.843Z,11.23
2023-05-18T00:10:04.533Z,11.24
2023-05-18T00:11:06.813Z,11.26
2023-05-18T00:12:10.019Z,11.27
2023-05-18T00:13:12.538Z,11.26
2023-05-18T00:14:14.817Z,11.27
2023-05-18T00:15:17.312Z,11.13
2023-05-18T00:16:19.589Z,11.04
2023-05-18T00:17:21.991Z,11.06
2023-05-18T00:18:26.864Z,11.10
2023-05-18T00:19:30.322Z,11.10
2023-05-18T00:20:34.672Z,11.10
2023-05-18T00:21:36.844Z,10.98
2023-05-18T00:22:42.968Z,11.08
2023-05-18T00:23:49.727Z,11.06
2023-05-18T00:24:52.426Z,11.01
2023-05-18T00:25:54.833Z,11.05
2023-05-18T00:26:57.037Z,11.07
2023-05-18T00:27:59.631Z,11.12
2023-05-18T00:29:01.863Z,11.16
2023-05-18T00:30:06.334Z,10.95
2023-05-18T00:31:08.859Z,10.82
2023-05-18T00:32:11.150Z,10.63
2023-05-18T00:33:13.795Z,10.54
2023-05-18T00:34:16.223Z,10.59
2023-05-18T00:35:18.453Z,10.41
2023-05-18T00:36:20.835Z,10.45
2023-05-18T00:37:23.261Z,10.52
2023-05-18T00:38:25.742Z,10.63
2023-05-18T00:39:28.012Z,10.37
2023-05-18T00:40:30.303Z,10.10
2023-05-18T00:41:33.080Z,10.12
2023-05-18T00:42:35.626Z,10.05
2023-05-18T00:43:41.622Z,9.88
2023-05-18T00:44:43.859Z,10.10
2023-05-18T00:45:46.412Z,9.87
2023-05-18T00:46:48.631Z,9.85
2023-05-18T00:47:51.046Z,9.76
2023-05-18T00:48:55.449Z,9.81
2023-05-18T00:49:57.735Z,9.65
2023-05-18T00:51:00.427Z,9.63
2023-05-18T00:52:03.811Z,9.65
2023-05-18T00:53:06.194Z,9.77
2023-05-18T00:54:09.740Z,9.85
2023-05-18T00:55:12.464Z,9.83
2023-05-18T00:56:15.680Z,9.64
2023-05-18T00:57:19.187Z,9.79
2023-05-18T00:58:21.398Z,9.62
2023-05-18T00:59:23.901Z,9.63
2023-05-18T01:00:28.422Z,9.70
2023-05-18T01:01:37.009Z,9.70
2023-05-18T01:02:46.140Z,9.69
2023-05-18T01:03:48.787Z,9.63
2023-05-18T01:04:52.850Z,9.77
2023-05-18T01:05:58.002Z,9.65
2023-05-18T01:07:06.852Z,9.46
2023-05-18T01:08:10.061Z,9.43
2023-05-18T01:09:13.728Z,9.43
2023-05-18T01:10:19.681Z,9.38
2023-05-18T01:11:33.684Z,9.55
2023-05-18T01:12:54.940Z,9.56
2023-05-18T01:14:17.783Z,9.67
2023-05-18T01:15:34.202Z,9.88
2023-05-18T01:16:48.787Z,9.85
2023-05-18T01:18:00.766Z,9.80
2023-05-18T01:19:14.339Z,9.81
2023-05-18T01:20:25.919Z,9.67
2023-05-18T01:22:12.750Z,9.70
2023-05-18T01:23:44.907Z,9.56
2023-05-18T01:24:49.352Z,9.73
2023-05-18T01:25:51.681Z,9.73
2023-05-18T01:26:57.590Z,9.63
2023-05-18T01:28:06.719Z,9.49
2023-05-18T01:29:12.780Z,9.60
2023-05-18T01:30:18.381Z,9.45
2023-05-18T01:31:20.822Z,9.57
2023-05-18T01:32:23.378Z,9.76
2023-05-18T01:33:26.284Z,9.91
2023-05-18T01:34:28.540Z,10.00
2023-05-18T01:35:31.752Z,10.07
2023-05-18T01:36:34.140Z,10.16
2023-05-18T01:37:36.527Z,10.18
2023-05-18T01:38:41.658Z,10.19
2023-05-18T01:39:45.456Z,10.12
2023-05-18T01:41:00.149Z,9.99
2023-05-18T01:42:14.249Z,10.16
2023-05-18T01:43:20.347Z,10.11
2023-05-18T01:44:40.091Z,10.10
2023-05-18T01:45:47.155Z,10.11
2023-05-18T01:47:01.907Z,9.96
2023-05-18T01:48:04.860Z,9.97
2023-05-18T01:49:16.113Z,10.10
2023-05-18T01:50:31.888Z,10.01
2023-05-18T01:51:41.074Z,10.08
2023-05-18T01:52:51.801Z,10.12
2023-05-18T01:53:57.672Z,10.07
2023-05-18T01:55:03.692Z,10.01
2023-05-18T01:56:10.673Z,10.03
2023-05-18T01:57:13.289Z,9.99
2023-05-18T01:58:17.042Z,10.07
2023-05-18T01:59:19.425Z,10.11
2023-05-18T02:00:22.466Z,9.95
2023-05-18T02:01:25.139Z,9.72
2023-05-18T02:02:28.582Z,9.85
2023-05-18T02:03:33.760Z,9.83
2023-05-18T02:04:36.527Z,9.82
2023-05-18T02:05:39.763Z,9.81
2023-05-18T02:06:42.033Z,9.88
2023-05-18T02:07:47.517Z,9.94
2023-05-18T02:08:51.475Z,9.90
2023-05-18T02:09:53.964Z,9.93
2023-05-18T02:10:56.516Z,9.98
2023-05-18T02:11:58.993Z,9.95
2023-05-18T02:13:02.175Z,9.89
2023-05-18T02:14:04.537Z,9.89
2023-05-18T02:15:07.591Z,9.93
2023-05-18T02:16:11.875Z,10.01
2023-05-18T02:17:14.172Z,10.15
2023-05-18T02:18:16.940Z,10.03
2023-05-18T02:19:20.336Z,9.98
2023-05-18T02:20:24.930Z,9.97
2023-05-18T02:21:27.451Z,10.04
2023-05-18T02:22:29.917Z,10.06
2023-05-18T02:23:34.057Z,10.12
2023-05-18T02:24:36.865Z,10.12
2023-05-18T02:25:39.099Z,10.09
2023-05-18T02:26:41.706Z,10.08
2023-05-18T02:27:43.901Z,10.07
2023-05-18T02:28:46.550Z,10.07
2023-05-18T02:29:48.748Z,10.02
2023-05-18T02:30:50.953Z,10.02
2023-05-18T02:31:53.310Z,10.03
2023-05-18T02:32:55.595Z,10.07
2023-05-18T02:33:58.561Z,10.03
2023-05-18T02:35:03.970Z,10.00
2023-05-18T02:36:11.004Z,10.00
2023-05-18T02:37:14.105Z,9.90
2023-05-18T02:38:16.688Z,9.81
2023-05-18T02:39:19.025Z,9.80
2023-05-18T02:40:22.282Z,9.81
2023-05-18T02:41:24.608Z,9.77
2023-05-18T02:42:27.099Z,9.80
2023-05-18T02:43:30.685Z,9.75
2023-05-18T02:44:32.893Z,9.74
2023-05-18T02:45:35.178Z,9.73
2023-05-18T02:46:37.864Z,9.43
2023-05-18T02:47:44.048Z,9.46
2023-05-18T02:48:46.633Z,9.47
2023-05-18T02:49:48.888Z,9.46
2023-05-18T02:50:51.548Z,9.51
2023-05-18T02:51:54.491Z,9.48
2023-05-18T02:52:56.937Z,9.41
2023-05-18T02:53:59.214Z,9.46
2023-05-18T02:55:01.798Z,9.53
2023-05-18T02:56:24.781Z,9.56
2023-05-18T02:57:47.162Z,9.39
2023-05-18T02:58:58.474Z,9.24
2023-05-18T03:00:14.742Z,9.30
2023-05-18T03:01:17.089Z,9.35
2023-05-18T03:02:27.969Z,9.47
2023-05-18T03:03:30.386Z,9.49
2023-05-18T03:04:32.989Z,9.55
2023-05-18T03:05:35.504Z,9.46
2023-05-18T03:06:38.393Z,9.47
2023-05-18T03:07:42.214Z,9.41
2023-05-18T03:08:44.704Z,9.43
2023-05-18T03:09:49.223Z,9.46
2023-05-18T03:10:51.453Z,9.30
2023-05-18T03:11:53.987Z,9.27
2023-05-18T03:12:56.379Z,9.28
2023-05-18T03:13:58.679Z,9.36
2023-05-18T03:15:01.234Z,9.28
2023-05-18T03:16:05.410Z,9.09
2023-05-18T03:17:07.750Z,9.22
2023-05-18T03:18:10.165Z,9.27
2023-05-18T03:19:14.355Z,9.30
2023-05-18T03:20:17.500Z,9.29
2023-05-18T03:21:20.064Z,9.37
2023-05-18T03:22:22.338Z,9.37
2023-05-18T03:23:27.052Z,9.44
2023-05-18T03:24:30.173Z,9.38
2023-05-18T03:25:37.503Z,9.36
2023-05-18T03:26:44.254Z,9.29
2023-05-18T03:27:46.766Z,9.22
2023-05-18T03:28:49.183Z,9.23
2023-05-18T03:29:53.194Z,9.24
2023-05-18T03:30:55.966Z,9.20
2023-05-18T03:31:58.733Z,9.16
2023-05-18T03:33:01.920Z,9.26
2023-05-18T03:34:05.461Z,9.24
2023-05-18T03:35:08.710Z,9.21
2023-05-18T03:36:11.130Z,9.22
2023-05-18T03:37:14.112Z,9.29
2023-05-18T03:38:16.611Z,9.12
2023-05-18T03:39:23.917Z,9.08
2023-05-18T03:40:27.566Z,9.07
2023-05-18T03:41:30.245Z,9.15
2023-05-18T03:42:32.494Z,9.17
2023-05-18T03:43:35.584Z,9.17
2023-05-18T03:44:37.878Z,9.21
2023-05-18T03:45:40.143Z,8.88
2023-05-18T03:46:43.098Z,8.67
2023-05-18T03:47:45.800Z,8.79
2023-05-18T03:48:48.351Z,8.77
2023-05-18T03:49:55.577Z,8.86
2023-05-18T03:50:58.191Z,8.97
2023-05-18T03:52:04.883Z,8.96
2023-05-18T03:53:07.163Z,8.98
2023-05-18T03:54:11.154Z,9.00
2023-05-18T03:55:13.633Z,8.89
2023-05-18T03:56:16.073Z,8.94
2023-05-18T03:57:18.941Z,8.81
2023-05-18T03:58:21.307Z,8.76
2023-05-18T03:59:23.808Z,8.88
2023-05-18T04:00:26.231Z,8.90
2023-05-18T04:01:30.571Z,8.95
2023-05-18T04:02:33.298Z,8.86
2023-05-18T04:03:35.694Z,8.80
2023-05-18T04:04:41.968Z,8.90
2023-05-18T04:05:44.921Z,9.03
2023-05-18T04:06:49.506Z,9.08
2023-05-18T04:07:51.675Z,9.14
2023-05-18T04:08:54.820Z,9.12
2023-05-18T04:09:57.304Z,9.10
2023-05-18T04:10:59.532Z,9.14
2023-05-18T04:12:03.376Z,9.09
2023-05-18T04:13:06.365Z,9.18
2023-05-18T04:14:08.870Z,9.10
2023-05-18T04:15:14.588Z,9.18
2023-05-18T04:16:18.269Z,9.19
2023-05-18T04:17:22.530Z,9.19
2023-05-18T04:18:24.850Z,9.17
2023-05-18T04:19:27.180Z,9.30
2023-05-18T04:20:29.846Z,9.32
2023-05-18T04:21:36.200Z,9.39
2023-05-18T04:22:46.866Z,9.44
2023-05-18T04:23:49.563Z,9.47
2023-05-18T04:24:55.056Z,9.52
2023-05-18T04:25:57.373Z,9.53
2023-05-18T04:27:02.770Z,9.52
2023-05-18T04:28:05.527Z,9.51
2023-05-18T04:29:10.849Z,9.48
2023-05-18T04:30:13.898Z,9.45
2023-05-18T04:31:18.350Z,9.52
2023-05-18T04:32:20.820Z,9.53
2023-05-18T04:33:24.084Z,9.57
2023-05-18T04:34:30.208Z,9.64
2023-05-18T04:35:32.990Z,9.61
2023-05-18T04:36:36.101Z,9.23
2023-05-18T04:37:40.550Z,9.29
2023-05-18T04:38:46.707Z,9.17
2023-05-18T04:39:49.063Z,9.30
2023-05-18T04:40:51.815Z,9.44
2023-05-18T04:41:58.262Z,9.62
2023-05-18T04:43:02.243Z,9.42
2023-05-18T04:44:07.478Z,9.49
2023-05-18T04:45:12.903Z,9.55
2023-05-18T04:46:16.888Z,9.55
2023-05-18T04:47:22.133Z,9.61
2023-05-18T04:48:26.055Z,9.57
2023-05-18T04:49:29.122Z,9.52
2023-05-18T04:50:31.350Z,9.27
2023-05-18T04:51:34.573Z,9.36
2023-05-18T04:52:37.143Z,9.25
2023-05-18T04:53:39.487Z,9.14
2023-05-18T04:54:41.872Z,8.94
2023-05-18T04:55:44.109Z,9.05
2023-05-18T04:56:48.537Z,8.82
2023-05-18T04:57:51.279Z,8.94
2023-05-18T04:58:53.524Z,9.11
2023-05-18T04:59:56.415Z,8.95
2023-05-18T05:00:58.752Z,9.03
2023-05-18T05:02:03.655Z,9.10
2023-05-18T05:03:06.617Z,9.22
2023-05-18T05:04:09.119Z,9.07
2023-05-18T05:05:11.849Z,8.83
2023-05-18T05:06:14.347Z,9.05
2023-05-18T05:07:16.750Z,9.16
2023-05-18T05:08:21.477Z,9.26
2023-05-18T05:09:23.742Z,9.34
2023-05-18T05:10:26.355Z,9.34
2023-05-18T05:11:28.850Z,9.43
2023-05-18T05:12:32.148Z,9.52
2023-05-18T05:13:36.285Z,9.37
2023-05-18T05:14:38.577Z,9.39
2023-05-18T05:15:40.850Z,9.50
2023-05-18T05:16:43.531Z,9.64
2023-05-18T05:17:49.624Z,9.76
2023-05-18T05:18:51.961Z,9.85
2023-05-18T05:19:54.395Z,9.82
2023-05-18T05:20:56.610Z,9.93
2023-05-18T05:21:59.882Z,10.03
2023-05-18T05:23:02.439Z,10.02
2023-05-18T05:24:06.073Z,9.88
2023-05-18T05:25:09.061Z,9.89
2023-05-18T05:26:11.460Z,9.90
2023-05-18T05:27:14.262Z,9.65
2023-05-18T05:28:17.437Z,9.74
2023-05-18T05:29:20.211Z,9.81
2023-05-18T05:30:22.652Z,10.00
2023-05-18T05:31:25.483Z,10.02
2023-05-18T05:32:27.787Z,10.19
2023-05-18T05:33:30.889Z,10.32
2023-05-18T05:34:33.119Z,10.18
2023-05-18T05:35:36.809Z,10.22
2023-05-18T05:36:39.510Z,10.16
2023-05-18T05:37:41.907Z,10.31
2023-05-18T05:38:44.672Z,10.47
2023-05-18T05:39:47.645Z,10.59
2023-05-18T05:40:52.641Z,10.74
2023-05-18T05:41:55.855Z,11.02
2023-05-18T05:42:58.618Z,11.43
2023-05-18T05:44:01.732Z,11.82
2023-05-18T05:45:04.347Z,12.13
2023-05-18T05:46:09.706Z,12.35
2023-05-18T05:47:12.074Z,12.57
2023-05-18T05:48:15.913Z,12.73
2023-05-18T05:49:18.371Z,12.82
2023-05-18T05:50:20.723Z,12.70
2023-05-18T05:51:25.080Z,12.57
2023-05-18T05:52:30.369Z,12.58
2023-05-18T05:53:33.100Z,12.83
2023-05-18T05:54:35.423Z,13.26
2023-05-18T05:55:41.339Z,13.51
2023-05-18T05:56:47.500Z,13.83
2023-05-18T05:57:51.557Z,14.06
2023-05-18T05:58:53.977Z,13.32
2023-05-18T05:59:56.301Z,13.32
2023-05-18T06:00:58.778Z,13.19
2023-05-18T06:02:01.033Z,13.55
2023-05-18T06:03:03.762Z,13.80
2023-05-18T06:04:18.553Z,13.46
2023-05-18T06:05:21.379Z,13.89
2023-05-18T06:06:24.182Z,14.00
2023-05-18T06:07:26.386Z,14.31
2023-05-18T06:08:28.612Z,14.96
2023-05-18T06:09:32.453Z,14.73
2023-05-18T06:10:35.411Z,14.71
2023-05-18T06:11:37.974Z,14.81
2023-05-18T06:12:41.223Z,14.85
2023-05-18T06:13:43.507Z,15.42
2023-05-18T06:14:46.203Z,15.67
2023-05-18T06:15:48.587Z,15.80
2023-05-18T06:16:51.028Z,16.28
2023-05-18T06:17:53.549Z,16.53
2023-05-18T06:18:56.758Z,17.07
2023-05-18T06:20:04.691Z,17.49
2023-05-18T06:21:06.994Z,17.87
2023-05-18T06:22:09.950Z,17.90
2023-05-18T06:23:22.720Z,18.08
2023-05-18T06:24:36.989Z,18.50
2023-05-18T06:26:17.473Z,18.38
2023-05-18T06:27:36.424Z,17.13
2023-05-18T06:28:56.561Z,17.57
2023-05-18T06:30:05.730Z,18.13
2023-05-18T06:31:31.165Z,17.34
2023-05-18T06:33:05.676Z,17.46
2023-05-18T06:34:08.353Z,18.00
2023-05-18T06:35:13.128Z,18.05
2023-05-18T06:36:18.454Z,18.26
2023-05-18T06:37:21.387Z,18.59
2023-05-18T06:38:23.863Z,18.24
2023-05-18T06:39:26.336Z,17.18
2023-05-18T06:40:28.970Z,17.63
2023-05-18T06:41:31.534Z,18.13
2023-05-18T06:42:34.306Z,18.28
2023-05-18T06:43:56.759Z,18.89
2023-05-18T06:45:05.037Z,18.45
2023-05-18T06:46:28.746Z,18.04
2023-05-18T06:47:35.179Z,17.84
2023-05-18T06:48:38.837Z,18.18
2023-05-18T06:49:41.102Z,17.33
2023-05-18T06:50:43.932Z,17.40
2023-05-18T06:51:46.312Z,17.93
2023-05-18T06:52:49.136Z,18.40
2023-05-18T06:53:51.641Z,18.89
2023-05-18T06:54:54.016Z,19.25
2023-05-18T06:55:56.638Z,19.70
2023-05-18T06:56:59.101Z,20.14
2023-05-18T06:58:02.627Z,20.35
2023-05-18T06:59:05.555Z,19.86
2023-05-18T07:00:12.489Z,19.99
2023-05-18T07:01:15.539Z,18.92
2023-05-18T07:02:17.885Z,19.04
2023-05-18T07:03:20.215Z,18.94
2023-05-18T07:04:22.805Z,19.31
2023-05-18T07:05:25.021Z,18.77
2023-05-18T07:06:28.366Z,18.13
2023-05-18T07:07:30.628Z,17.65
2023-05-18T07:08:38.871Z,17.52
2023-05-18T07:09:45.554Z,18.09
2023-05-18T07:10:48.008Z,18.29
2023-05-18T07:11:50.273Z,18.90
2023-05-18T07:12:52.822Z,19.41
2023-05-18T07:13:55.048Z,19.83
2023-05-18T07:14:57.495Z,18.39
2023-05-18T07:15:59.986Z,17.68
2023-05-18T07:17:02.285Z,17.43
2023-05-18T07:18:04.738Z,18.11
2023-05-18T07:19:15.828Z,18.31
2023-05-18T07:20:18.297Z,17.32
2023-05-18T07:21:20.657Z,16.68
2023-05-18T07:22:22.912Z,17.06
2023-05-18T07:23:25.119Z,17.89
2023-05-18T07:24:27.578Z,18.73
2023-05-18T07:25:30.251Z,19.41
2023-05-18T07:26:33.007Z,19.47
2023-05-18T07:27:35.239Z,19.28
2023-05-18T07:28:38.715Z,19.24
2023-05-18T07:29:41.789Z,18.55
2023-05-18T07:30:44.123Z,18.58
2023-05-18T07:31:46.752Z,18.13
2023-05-18T07:32:51.385Z,18.35
2023-05-18T07:33:53.705Z,17.32
2023-05-18T07:34:55.991Z,17.76
2023-05-18T07:35:58.197Z,18.64
2023-05-18T07:37:01.690Z,18.79
2023-05-18T07:38:03.944Z,19.19
2023-05-18T07:39:09.044Z,20.02
2023-05-18T07:40:12.846Z,19.78
2023-05-18T07:41:15.064Z,20.16
2023-05-18T07:42:17.291Z,20.25
2023-05-18T07:43:19.587Z,20.58
2023-05-18T07:44:22.087Z,20.74
2023-05-18T07:45:24.506Z,19.99
2023-05-18T07:46:26.796Z,19.86
2023-05-18T07:47:29.166Z,20.30
2023-05-18T07:48:31.478Z,20.18
2023-05-18T07:49:33.904Z,20.41
2023-05-18T07:50:36.267Z,19.58
2023-05-18T07:51:38.485Z,19.64
2023-05-18T07:52:41.079Z,19.89
2023-05-18T07:53:43.315Z,19.15
2023-05-18T07:54:45.515Z,18.27
2023-05-18T07:55:47.974Z,18.81
2023-05-18T07:56:50.502Z,19.05
2023-05-18T07:57:52.952Z,19.14
2023-05-18T07:58:55.193Z,18.64
2023-05-18T07:59:57.430Z,18.61
2023-05-18T08:00:59.832Z,17.80
2023-05-18T08:02:02.212Z,17.55
2023-05-18T08:03:07.092Z,16.82
2023-05-18T08:04:09.502Z,16.61
2023-05-18T08:05:12.213Z,15.89
2023-05-18T08:06:14.460Z,15.78
2023-05-18T08:07:18.632Z,15.68
2023-05-18T08:08:21.136Z,15.24
2023-05-18T08:09:23.358Z,14.37
2023-05-18T08:10:25.831Z,14.32
2023-05-18T08:11:28.052Z,14.19
2023-05-18T08:12:30.636Z,14.32
2023-05-18T08:13:34.175Z,14.15
2023-05-18T08:14:36.640Z,14.15
2023-05-18T08:15:41.176Z,13.92
2023-05-18T08:16:43.419Z,14.26
2023-05-18T08:17:46.199Z,14.41
2023-05-18T08:18:48.500Z,14.74
2023-05-18T08:19:50.816Z,15.13
2023-05-18T08:20:54.001Z,15.06
2023-05-18T08:21:56.223Z,15.34
2023-05-18T08:22:58.883Z,15.77
2023-05-18T08:24:04.947Z,16.07
2023-05-18T08:25:07.499Z,16.19
2023-05-18T08:26:11.369Z,16.15
2023-05-18T08:27:14.693Z,15.93
2023-05-18T08:28:17.086Z,16.26
2023-05-18T08:29:19.365Z,16.64
2023-05-18T08:30:21.762Z,16.97
2023-05-18T08:31:24.227Z,16.88
2023-05-18T08:32:26.822Z,16.90
2023-05-18T08:33:29.566Z,16.72
2023-05-18T08:34:31.909Z,16.94
2023-05-18T08:35:34.144Z,16.66
2023-05-18T08:36:37.183Z,16.61
2023-05-18T08:37:39.920Z,16.75
2023-05-18T08:38:42.895Z,17.00
2023-05-18T08:39:46.243Z,16.99
2023-05-18T08:41:12.906Z,17.07
2023-05-18T08:42:48.624Z,16.89
2023-05-18T08:43:58.236Z,16.15
2023-05-18T08:45:21.177Z,16.14
2023-05-18T08:46:33.273Z,16.00
2023-05-18T08:47:37.393Z,16.35
2023-05-18T08:48:44.463Z,16.03
2023-05-18T08:49:52.504Z,15.67
2023-05-18T08:50:58.108Z,15.31
2023-05-18T08:52:04.256Z,14.58
2023-05-18T08:53:06.750Z,14.31
2023-05-18T08:54:11.938Z,14.34
2023-05-18T08:55:17.760Z,14.64
2023-05-18T08:56:23.341Z,14.85
2023-05-18T08:57:26.725Z,14.92
2023-05-18T08:58:36.382Z,14.89
2023-05-18T08:59:43.694Z,14.83
2023-05-18T09:00:46.010Z,14.96
2023-05-18T09:01:48.388Z,15.21
2023-05-18T09:02:51.226Z,15.44
2023-05-18T09:03:55.320Z,15.48
2023-05-18T09:04:58.449Z,15.67
2023-05-18T09:06:01.589Z,15.74
2023-05-18T09:07:05.483Z,15.89
2023-05-18T09:08:09.687Z,15.72
2023-05-18T09:09:14.019Z,14.99
2023-05-18T09:10:16.511Z,14.71
2023-05-18T09:11:19.445Z,14.84
2023-05-18T09:12:24.622Z,15.23
2023-05-18T09:13:27.936Z,15.45
2023-05-18T09:14:32.301Z,15.05
2023-05-18T09:15:37.760Z,15.30
2023-05-18T09:16:40.196Z,15.54
2023-05-18T09:17:42.830Z,15.57
2023-05-18T09:18:45.422Z,15.76
2023-05-18T09:19:47.889Z,16.12
2023-05-18T09:20:50.330Z,16.43
2023-05-18T09:21:52.646Z,16.47
2023-05-18T09:22:54.943Z,16.72
2023-05-18T09:23:57.244Z,16.42
2023-05-18T09:24:59.724Z,16.48
2023-05-18T09:26:04.823Z,16.49
2023-05-18T09:27:07.261Z,15.84
2023-05-18T09:28:09.618Z,15.02
2023-05-18T09:29:20.016Z,15.34
2023-05-18T09:30:22.812Z,15.04
2023-05-18T09:31:26.661Z,15.00
2023-05-18T09:32:29.810Z,15.04
2023-05-18T09:33:39.537Z,14.83
2023-05-18T09:34:42.889Z,15.06
2023-05-18T09:35:48.472Z,15.47
2023-05-18T09:36:57.072Z,15.53
2023-05-18T09:38:04.195Z,15.45
2023-05-18T09:39:12.893Z,15.91
2023-05-18T09:40:16.865Z,16.22
2023-05-18T09:41:19.524Z,16.50
2023-05-18T09:42:24.137Z,16.77
2023-05-18T09:43:26.658Z,16.54
2023-05-18T09:44:32.187Z,16.25
2023-05-18T09:45:43.521Z,16.23
2023-05-18T09:46:45.781Z,15.86
2023-05-18T09:47:50.456Z,15.71
2023-05-18T09:48:54.219Z,16.19
2023-05-18T09:49:57.918Z,16.12
2023-05-18T09:51:00.680Z,16.44
2023-05-18T09:52:03.246Z,16.66
2023-05-18T09:53:10.163Z,16.64
2023-05-18T09:54:12.623Z,16.47
2023-05-18T09:55:20.523Z,16.49
2023-05-18T09:56:24.538Z,16.53
2023-05-18T09:57:26.894Z,16.84
2023-05-18T09:58:33.144Z,16.89
2023-05-18T09:59:36.818Z,17.06
2023-05-18T10:00:44.221Z,17.30
2023-05-18T10:01:57.159Z,17.46
2023-05-18T10:03:01.108Z,17.48
2023-05-18T10:04:05.113Z,17.39
2023-05-18T10:05:19.454Z,17.10
2023-05-18T10:06:27.622Z,17.60
2023-05-18T10:07:29.877Z,18.12
2023-05-18T10:08:33.195Z,18.29
2023-05-18T10:09:35.515Z,18.33
2023-05-18T10:10:40.020Z,18.03
2023-05-18T10:11:43.807Z,18.01
2023-05-18T10:12:46.728Z,17.72
2023-05-18T10:13:54.947Z,17.67
2023-05-18T10:14:57.449Z,17.07
2023-05-18T10:16:05.324Z,17.36
2023-05-18T10:18:25.338Z,17.11
2023-05-18T10:19:28.639Z,17.32
2023-05-18T10:20:32.595Z,16.76
2023-05-18T10:21:37.183Z,16.50
2023-05-18T10:22:40.813Z,16.11
2023-05-18T10:23:47.978Z,16.19
2023-05-18T10:24:54.601Z,16.69
2023-05-18T10:25:57.752Z,17.16
2023-05-18T10:27:03.662Z,16.89
2023-05-18T10:28:07.765Z,16.61
2023-05-18T10:29:11.046Z,16.21
2023-05-18T10:30:16.583Z,16.06
2023-05-18T10:31:20.006Z,16.21
2023-05-18T10:32:23.829Z,16.49
2023-05-18T10:33:29.476Z,16.43
2023-05-18T10:34:33.258Z,16.72
2023-05-18T10:35:38.704Z,16.97
2023-05-18T10:36:42.982Z,16.92
2023-05-18T10:37:50.380Z,16.79
2023-05-18T10:38:53.575Z,16.37
2023-05-18T10:39:56.289Z,16.25
2023-05-18T10:41:00.812Z,16.74
2023-05-18T10:42:04.698Z,17.00
2023-05-18T10:43:07.649Z,17.14
2023-05-18T10:44:10.463Z,16.57
2023-05-18T10:45:13.290Z,16.60
2023-05-18T10:46:16.783Z,16.82
2023-05-18T10:47:20.700Z,17.06
2023-05-18T10:48:24.875Z,17.04
2023-05-18T10:49:28.038Z,17.11
2023-05-18T10:50:32.163Z,17.42
2023-05-18T10:51:35.683Z,17.49
2023-05-18T10:52:38.262Z,17.43
2023-05-18T10:53:43.913Z,17.45
2023-05-18T10:54:47.169Z,17.68
2023-05-18T10:55:53.836Z,17.68
2023-05-18T10:56:56.801Z,17.31
2023-05-18T10:58:05.570Z,16.97
2023-05-18T10:59:08.551Z,17.24
2023-05-18T11:00:11.103Z,16.94
2023-05-18T11:01:14.198Z,16.97
2023-05-18T11:02:18.991Z,17.32
2023-05-18T11:03:22.344Z,17.52
2023-05-18T11:04:29.639Z,17.49
2023-05-18T11:05:31.998Z,17.57
2023-05-18T11:06:35.498Z,17.54
2023-05-18T11:07:37.915Z,17.52
2023-05-18T11:08:47.405Z,17.50
2023-05-18T11:09:49.843Z,17.34
2023-05-18T11:11:01.155Z,17.32
2023-05-18T11:12:03.547Z,17.45
2023-05-18T11:13:07.205Z,17.40
2023-05-18T11:14:09.531Z,17.32
2023-05-18T11:15:12.101Z,17.38
2023-05-18T11:16:16.127Z,17.34
2023-05-18T11:17:20.761Z,17.23
2023-05-18T11:18:37.976Z,17.41
2023-05-18T11:19:40.301Z,17.01
2023-05-18T11:20:46.608Z,16.72
2023-05-18T11:21:53.207Z,17.08
2023-05-18T11:22:58.273Z,17.25
2023-05-18T11:24:21.315Z,17.29
2023-05-18T11:25:26.712Z,16.85
2023-05-18T11:26:29.960Z,16.36
2023-05-18T11:27:32.911Z,16.46
2023-05-18T11:28:43.128Z,17.03
2023-05-18T11:29:46.634Z,17.48
2023-05-18T11:30:50.457Z,17.49
2023-05-18T11:31:54.808Z,16.69
2023-05-18T11:33:14.360Z,16.76
2023-05-18T11:34:44.858Z,17.10
2023-05-18T11:36:15.457Z,17.31
2023-05-18T11:37:41.092Z,17.36
2023-05-18T11:39:07.285Z,17.67
2023-05-18T11:40:33.053Z,17.66
2023-05-18T11:41:42.605Z,17.49
2023-05-18T11:42:58.310Z,17.06
2023-05-18T11:44:12.831Z,16.73
2023-05-18T11:45:15.020Z,16.36
2023-05-18T11:46:21.504Z,15.80
2023-05-18T11:47:31.608Z,15.64
2023-05-18T11:48:34.193Z,15.99
2023-05-18T11:49:47.857Z,16.60
2023-05-18T11:50:54.288Z,16.50
2023-05-18T11:52:04.295Z,16.58
2023-05-18T11:53:06.565Z,16.44
2023-05-18T11:54:09.239Z,16.65
2023-05-18T11:55:14.209Z,16.71
2023-05-18T11:56:17.396Z,17.00
2023-05-18T11:57:24.240Z,17.23
2023-05-18T11:58:26.607Z,17.14
2023-05-18T11:59:41.842Z,17.35
2023-05-18T12:00:44.213Z,17.04
2023-05-18T12:01:46.696Z,16.57
2023-05-18T12:02:49.373Z,16.83
2023-05-18T12:03:52.579Z,17.27
2023-05-18T12:04:57.041Z,17.06
2023-05-18T12:06:00.794Z,16.87
2023-05-18T12:07:08.055Z,16.77
2023-05-18T12:08:11.484Z,16.40
2023-05-18T12:09:15.630Z,16.51
2023-05-18T12:10:17.817Z,16.80
2023-05-18T12:11:20.285Z,17.16
2023-05-18T12:12:24.149Z,17.40
2023-05-18T12:13:27.990Z,16.73
2023-05-18T12:14:31.436Z,16.84
2023-05-18T12:15:34.162Z,16.77
2023-05-18T12:16:37.155Z,17.07
2023-05-18T12:17:47.516Z,16.91
2023-05-18T12:18:51.387Z,16.87
2023-05-18T12:19:53.651Z,16.84
2023-05-18T12:20:56.106Z,16.80
2023-05-18T12:21:59.210Z,17.00
2023-05-18T12:23:01.566Z,16.77
2023-05-18T12:24:04.467Z,17.03
2023-05-18T12:25:07.810Z,17.10
2023-05-18T12:26:10.284Z,17.01
2023-05-18T12:27:13.119Z,16.73
2023-05-18T12:28:17.172Z,16.74
2023-05-18T12:29:21.819Z,16.99
2023-05-18T12:30:34.480Z,17.15
2023-05-18T12:31:41.472Z,17.32
2023-05-18T12:32:52.991Z,17.48
2023-05-18T12:33:57.529Z,17.64
2023-05-18T12:35:01.709Z,17.35
2023-05-18T12:36:09.954Z,16.72
2023-05-18T12:37:12.350Z,16.75
2023-05-18T12:38:17.427Z,17.15
2023-05-18T12:39:20.655Z,17.49
2023-05-18T12:40:23.428Z,17.67
2023-05-18T12:41:29.277Z,18.03
2023-05-18T12:42:32.015Z,18.21
2023-05-18T12:43:35.077Z,18.19
2023-05-18T12:44:38.446Z,18.37
2023-05-18T12:45:41.211Z,18.18
2023-05-18T12:46:43.729Z,18.01
2023-05-18T12:47:46.213Z,17.97
2023-05-18T12:48:57.140Z,18.36
2023-05-18T12:50:01.818Z,18.58
2023-05-18T12:51:04.249Z,18.47
2023-05-18T12:52:14.904Z,18.77
2023-05-18T12:53:18.156Z,18.69
2023-05-18T12:54:28.795Z,18.10
2023-05-18T12:55:35.348Z,18.00
2023-05-18T12:57:02.201Z,17.55
2023-05-18T12:58:19.701Z,17.34
2023-05-18T12:59:22.388Z,17.08
2023-05-18T13:00:24.674Z,16.97
2023-05-18T13:01:27.001Z,16.81
2023-05-18T13:02:34.428Z,16.68
2023-05-18T13:03:40.716Z,16.48
2023-05-18T13:04:43.167Z,16.79
2023-05-18T13:06:01.454Z,16.88
2023-05-18T13:07:03.776Z,16.99
2023-05-18T13:08:06.552Z,17.29
2023-05-18T13:09:12.572Z,17.16
2023-05-18T13:10:17.574Z,16.92
2023-05-18T13:11:24.517Z,16.86
2023-05-18T13:12:46.495Z,16.62
2023-05-18T13:14:05.456Z,16.88
2023-05-18T13:15:18.194Z,16.62
2023-05-18T13:16:20.485Z,16.96
2023-05-18T13:17:22.928Z,17.18
2023-05-18T13:18:26.818Z,17.19
2023-05-18T13:19:30.016Z,17.38
2023-05-18T13:20:40.164Z,17.13
2023-05-18T13:21:42.613Z,17.35
2023-05-18T13:22:45.149Z,17.44
2023-05-18T13:23:47.374Z,17.52
2023-05-18T13:24:49.715Z,17.52
2023-05-18T13:25:51.962Z,17.55
2023-05-18T13:26:54.337Z,17.42
2023-05-18T13:27:56.834Z,17.24
2023-05-18T13:29:00.489Z,17.36
2023-05-18T13:30:03.221Z,17.54
2023-05-18T13:31:05.728Z,17.65
2023-05-18T13:32:08.036Z,17.68
2023-05-18T13:33:18.584Z,17.60
2023-05-18T13:34:22.506Z,17.62
2023-05-18T13:35:25.924Z,17.49
2023-05-18T13:36:34.153Z,17.12
2023-05-18T13:37:38.426Z,17.21
2023-05-18T13:38:41.521Z,16.97
2023-05-18T13:39:43.866Z,16.98
2023-05-18T13:40:46.985Z,16.65
2023-05-18T13:41:49.180Z,16.75
2023-05-18T13:42:51.616Z,16.90
2023-05-18T13:43:53.855Z,17.15
2023-05-18T13:44:56.078Z,17.18
2023-05-18T13:45:58.815Z,16.86
2023-05-18T13:47:01.279Z,17.00
2023-05-18T13:48:09.407Z,16.81
2023-05-18T13:49:13.521Z,16.97
2023-05-18T13:50:15.900Z,17.21
2023-05-18T13:51:18.266Z,17.44
2023-05-18T13:52:20.537Z,17.66
2023-05-18T13:53:23.778Z,17.82
2023-05-18T13:54:26.017Z,17.38
2023-05-18T13:55:28.481Z,17.13
2023-05-18T13:56:30.796Z,17.52
2023-05-18T13:57:33.218Z,17.77
2023-05-18T13:58:36.043Z,18.05
2023-05-18T13:59:38.343Z,17.76
2023-05-18T14:00:41.711Z,18.03
2023-05-18T14:01:44.793Z,18.23
2023-05-18T14:02:47.622Z,17.70
2023-05-18T14:03:49.907Z,17.55